Time;durP1;ratioP1;P1;durP2;ratioP2;P2;SDS_P1;SDS_P2;PMS_P1;PMS_P2;Temp;Humidity;BMP_temperature;BMP_pressure;BME280_temperature;BME280_humidity;BME280_pressure;Samples;Min_cycle;Max_cycle;Signal;HPM_P1;HPM_P2
2023/10/30 00:00:18;;;;;;;0.50;0.50;;;;;;;12.73;81.51;94475.66;4298199;33;20194;-64
2023/10/30 00:02:44;;;;;;;0.93;0.93;;;;;;;12.69;81.74;94480.88;4306751;33;20201;-64
2023/10/30 00:05:11;;;;;;;0.97;0.97;;;;;;;12.63;82.34;94481.41;4313517;33;20245;-64
2023/10/30 00:07:39;;;;;;;1.07;1.07;;;;;;;12.67;82.29;94474.34;4304786;33;20181;-64
2023/10/30 00:10:09;;;;;;;2.93;1.50;;;;;;;12.66;82.27;94475.44;4312514;33;20202;-64
2023/10/30 00:12:36;;;;;;;1.13;1.10;;;;;;;12.57;82.31;94483.50;4314777;33;20197;-64
2023/10/30 00:15:03;;;;;;;0.90;0.83;;;;;;;12.57;82.32;94488.03;4315902;33;20178;-64
2023/10/30 00:17:33;;;;;;;1.13;1.07;;;;;;;12.43;83.23;94493.62;4288760;33;20217;-64
2023/10/30 00:19:59;;;;;;;0.60;0.60;;;;;;;12.51;82.98;94494.66;4296236;33;20265;-64
2023/10/30 00:22:35;;;;;;;0.87;0.87;;;;;;;12.50;82.70;94493.09;4309841;33;20209;-64
2023/10/30 00:25:02;;;;;;;0.80;0.80;;;;;;;12.51;82.99;94489.31;4280726;33;20213;-64
2023/10/30 00:27:31;;;;;;;0.80;0.80;;;;;;;12.49;83.16;94494.19;4281175;32;20190;-64
2023/10/30 00:29:56;;;;;;;0.53;0.53;;;;;;;12.41;83.44;94498.50;4280185;33;20190;-64
2023/10/30 00:32:24;;;;;;;0.83;0.83;;;;;;;12.33;83.92;94499.31;4271485;33;20196;-64
2023/10/30 00:34:51;;;;;;;1.07;0.93;;;;;;;12.39;83.18;94498.03;4310682;33;20186;-64
2023/10/30 00:37:17;;;;;;;0.70;0.70;;;;;;;12.37;83.25;94505.56;4278942;33;20213;-64
2023/10/30 00:39:44;;;;;;;0.50;0.50;;;;;;;12.35;83.46;94508.53;4285115;33;20201;-64
2023/10/30 00:42:11;;;;;;;0.50;0.50;;;;;;;12.27;83.29;94505.94;4299919;33;20288;-64
2023/10/30 00:44:38;;;;;;;4.23;0.90;;;;;;;12.23;83.51;94505.03;4298728;33;20183;-64
2023/10/30 00:47:06;;;;;;;0.50;0.50;;;;;;;12.28;83.85;94499.50;4286036;33;20289;-64
2023/10/30 00:49:33;;;;;;;0.40;0.40;;;;;;;12.32;83.03;94505.75;4305037;33;20315;-64
2023/10/30 00:52:01;;;;;;;0.53;0.53;;;;;;;12.18;83.27;94505.22;4290321;33;20266;-64
2023/10/30 00:54:26;;;;;;;1.43;1.07;;;;;;;12.24;82.90;94504.72;4324241;33;20174;-64
2023/10/30 00:56:52;;;;;;;0.47;0.47;;;;;;;12.20;83.15;94500.38;4291213;33;20270;-64
2023/10/30 00:59:19;;;;;;;0.60;0.60;;;;;;;12.26;82.49;94510.47;4300174;33;20196;-64
2023/10/30 01:01:44;;;;;;;0.70;0.70;;;;;;;12.25;82.53;94508.94;4265282;33;20211;-64
2023/10/30 01:04:12;;;;;;;1.47;1.37;;;;;;;12.14;82.91;94507.75;4304082;33;20196;-64
2023/10/30 01:06:38;;;;;;;0.63;0.63;;;;;;;12.22;82.21;94508.81;4296120;33;20178;-64
2023/10/30 01:09:05;;;;;;;0.30;0.30;;;;;;;12.04;81.88;94500.16;4310533;33;20200;-64
2023/10/30 01:11:30;;;;;;;1.70;0.93;;;;;;;12.18;81.45;94506.00;4300024;33;20186;-64
2023/10/30 01:13:55;;;;;;;0.30;0.30;;;;;;;12.12;82.07;94501.19;4276203;33;20222;-64
2023/10/30 01:16:21;;;;;;;1.40;0.43;;;;;;;12.09;82.00;94502.59;4271173;33;20310;-64
2023/10/30 01:18:48;;;;;;;0.43;0.43;;;;;;;11.96;82.00;94493.00;4290549;33;20186;-64
2023/10/30 01:21:17;;;;;;;0.83;0.83;;;;;;;11.98;81.68;94498.78;4301165;33;20186;-64
2023/10/30 01:23:42;;;;;;;0.67;0.67;;;;;;;11.91;81.71;94488.66;4312460;33;20194;-64
2023/10/30 01:26:09;;;;;;;0.73;0.63;;;;;;;12.00;81.59;94483.28;4313028;33;20186;-64
2023/10/30 01:28:34;;;;;;;0.43;0.43;;;;;;;11.92;81.87;94484.88;4307177;33;20208;-64
2023/10/30 01:31:04;;;;;;;0.53;0.53;;;;;;;11.92;81.71;94486.75;4305228;33;20190;-64
2023/10/30 01:33:32;;;;;;;0.20;0.20;;;;;;;11.89;81.55;94490.84;4312027;33;20182;-63
2023/10/30 01:35:57;;;;;;;0.47;0.47;;;;;;;11.89;81.64;94495.38;4295796;33;20191;-67
2023/10/30 01:38:23;;;;;;;1.90;0.57;;;;;;;11.83;81.85;94499.34;4277094;33;20186;-64
2023/10/30 01:40:54;;;;;;;1.80;0.43;;;;;;;11.89;81.79;94498.81;4295981;33;20296;-63
2023/10/30 01:43:30;;;;;;;0.70;0.70;;;;;;;11.88;82.12;94501.78;4319625;33;20293;-63
2023/10/30 01:45:58;;;;;;;0.50;0.50;;;;;;;11.80;82.77;94486.69;4267441;33;20298;-64
2023/10/30 01:48:31;;;;;;;0.77;0.57;;;;;;;11.79;82.42;94490.44;4322905;33;20190;-63
2023/10/30 01:50:59;;;;;;;0.30;0.30;;;;;;;11.79;82.04;94485.13;4297264;33;20241;-63
2023/10/30 01:53:30;;;;;;;0.30;0.30;;;;;;;11.75;81.74;94484.97;4301746;33;20201;-63
2023/10/30 01:55:58;;;;;;;0.77;0.77;;;;;;;11.79;82.13;94501.84;4300460;33;20182;-63
2023/10/30 01:58:25;;;;;;;0.57;0.57;;;;;;;11.71;81.84;94495.44;4318205;33;20194;-63
2023/10/30 02:00:54;;;;;;;0.60;0.60;;;;;;;11.74;81.79;94493.25;4290731;33;20269;-63
2023/10/30 02:03:20;;;;;;;0.90;0.80;;;;;;;11.69;81.93;94492.31;4305084;33;20265;-63
2023/10/30 02:05:46;;;;;;;0.40;0.40;;;;;;;11.55;82.83;94491.78;4303129;33;20185;-63
2023/10/30 02:08:12;;;;;;;0.30;0.30;;;;;;;11.58;82.20;94488.47;4303065;33;20194;-63
2023/10/30 02:10:39;;;;;;;0.63;0.63;;;;;;;11.66;81.88;94486.88;4286031;33;20232;-63
2023/10/30 02:13:12;;;;;;;0.10;0.10;;;;;;;11.66;81.83;94487.66;4293331;33;20190;-63
2023/10/30 02:15:38;;;;;;;0.80;0.73;;;;;;;11.62;81.31;94485.97;4283587;33;20182;-63
2023/10/30 02:18:04;;;;;;;0.73;0.73;;;;;;;11.65;81.50;94478.13;4302452;33;20225;-63
2023/10/30 02:20:30;;;;;;;0.60;0.60;;;;;;;11.52;81.93;94484.44;4314477;33;20209;-63
2023/10/30 02:22:55;;;;;;;0.43;0.43;;;;;;;11.48;82.07;94475.53;4272917;33;20208;-63
2023/10/30 02:25:24;;;;;;;0.70;0.70;;;;;;;11.44;81.89;94476.50;4325044;33;20182;-63
2023/10/30 02:27:57;;;;;;;0.77;0.77;;;;;;;11.46;81.81;94472.44;4255500;33;20278;-63
2023/10/30 02:30:25;;;;;;;0.30;0.30;;;;;;;11.40;82.10;94475.59;4308071;33;20181;-63
2023/10/30 02:32:52;;;;;;;0.20;0.20;;;;;;;11.43;82.10;94483.69;4306686;33;20277;-63
2023/10/30 02:35:18;;;;;;;0.67;0.37;;;;;;;11.26;82.37;94489.06;4292299;33;20261;-63
2023/10/30 02:37:45;;;;;;;0.30;0.30;;;;;;;11.21;82.98;94487.38;4301720;33;20253;-63
2023/10/30 02:40:13;;;;;;;0.30;0.30;;;;;;;11.31;82.05;94486.25;4310484;33;20359;-63
2023/10/30 02:42:40;;;;;;;0.33;0.33;;;;;;;11.35;81.82;94477.31;4293358;33;20217;-63
2023/10/30 02:45:08;;;;;;;0.37;0.37;;;;;;;11.29;81.85;94472.50;4292206;33;20186;-63
2023/10/30 02:47:35;;;;;;;0.33;0.33;;;;;;;11.23;82.04;94476.41;4284403;33;20228;-63
2023/10/30 02:50:03;;;;;;;0.30;0.30;;;;;;;11.13;82.47;94476.78;4274138;33;20194;-63
2023/10/30 02:52:30;;;;;;;0.53;0.53;;;;;;;11.01;83.05;94480.84;4307032;33;20293;-63
2023/10/30 02:54:57;;;;;;;0.50;0.50;;;;;;;11.12;82.60;94485.84;4292954;33;20190;-63
2023/10/30 02:57:22;;;;;;;0.53;0.53;;;;;;;11.01;82.55;94483.50;4297460;33;20200;-63
2023/10/30 02:59:50;;;;;;;0.70;0.70;;;;;;;11.18;81.96;94489.87;4265749;33;20209;-63
2023/10/30 03:02:17;;;;;;;0.53;0.53;;;;;;;11.08;81.94;94491.00;4310981;33;20201;-63
2023/10/30 03:04:44;;;;;;;0.40;0.40;;;;;;;11.01;82.10;94488.81;4315404;33;20276;-63
2023/10/30 03:07:09;;;;;;;0.40;0.40;;;;;;;11.10;81.93;94493.34;4313503;33;20186;-63
2023/10/30 03:09:37;;;;;;;0.70;0.60;;;;;;;11.15;81.89;94493.16;4278777;33;20204;-63
2023/10/30 03:12:05;;;;;;;0.33;0.33;;;;;;;11.20;82.29;94500.97;4290030;33;20221;-63
2023/10/30 03:14:31;;;;;;;0.70;0.70;;;;;;;11.07;82.32;94509.88;4285904;33;20187;-63
2023/10/30 03:16:58;;;;;;;0.43;0.43;;;;;;;11.07;82.76;94507.22;4295943;33;20186;-63
2023/10/30 03:19:25;;;;;;;2.30;1.07;;;;;;;11.02;82.87;94500.22;4298293;33;20182;-63
2023/10/30 03:21:52;;;;;;;1.10;0.70;;;;;;;11.17;82.07;94491.75;4323430;33;20186;-63
2023/10/30 03:24:17;;;;;;;0.33;0.33;;;;;;;11.01;82.88;94493.38;4303726;33;20186;-63
2023/10/30 03:26:44;;;;;;;0.30;0.30;;;;;;;10.85;83.85;94490.41;4272716;33;20191;-63
2023/10/30 03:29:11;;;;;;;0.77;0.77;;;;;;;11.05;83.26;94486.31;4302897;33;20182;-63
2023/10/30 03:31:38;;;;;;;0.23;0.23;;;;;;;11.03;82.97;94483.19;4290283;33;20187;-63
2023/10/30 03:34:05;;;;;;;0.20;0.20;;;;;;;11.15;82.79;94487.88;4293421;33;20198;-63
2023/10/30 03:36:33;;;;;;;0.30;0.30;;;;;;;11.20;82.21;94500.97;4312935;33;20236;-63
2023/10/30 03:38:58;;;;;;;0.20;0.20;;;;;;;11.13;82.61;94498.00;4315778;33;20189;-63
2023/10/30 03:41:23;;;;;;;0.13;0.13;;;;;;;11.28;82.57;94503.59;4298040;33;20205;-63
2023/10/30 03:43:49;;;;;;;0.60;0.60;;;;;;;11.24;82.51;94502.66;4302877;33;20287;-63
2023/10/30 03:46:16;;;;;;;1.57;0.87;;;;;;;11.13;83.09;94496.13;4306709;33;20182;-63
2023/10/30 03:48:41;;;;;;;0.70;0.70;;;;;;;11.29;82.50;94504.38;4296501;33;20221;-63
2023/10/30 03:51:09;;;;;;;0.20;0.20;;;;;;;11.24;82.71;94507.19;4303594;33;20196;-63
2023/10/30 03:53:34;;;;;;;0.10;0.10;;;;;;;11.29;82.59;94496.41;4301873;33;20205;-63
2023/10/30 03:56:06;;;;;;;0.40;0.40;;;;;;;11.12;83.46;94501.75;4308620;33;20189;-63
2023/10/30 03:58:32;;;;;;;0.17;0.17;;;;;;;11.21;83.13;94498.00;4314118;33;20231;-63
2023/10/30 04:01:07;;;;;;;1.23;0.93;;;;;;;11.17;83.61;94510.34;4303405;33;20185;-63
2023/10/30 04:03:34;;;;;;;0.40;0.40;;;;;;;11.12;84.40;94499.09;4277953;33;20200;-63
2023/10/30 04:06:02;;;;;;;1.33;0.27;;;;;;;11.25;84.07;94511.41;4311665;33;20216;-63
2023/10/30 04:08:29;;;;;;;0.60;0.60;;;;;;;11.19;84.14;94502.06;4299252;33;20174;-63
2023/10/30 04:10:56;;;;;;;0.17;0.17;;;;;;;11.13;84.81;94498.00;4322021;33;20190;-63
2023/10/30 04:13:24;;;;;;;0.33;0.33;;;;;;;11.11;85.56;94498.31;4302619;33;20268;-63
2023/10/30 04:15:50;;;;;;;0.77;0.40;;;;;;;11.14;85.70;94503.00;4307650;33;20289;-64
2023/10/30 04:18:16;;;;;;;0.87;0.70;;;;;;;11.17;85.69;94497.06;4315263;33;20215;-63
2023/10/30 04:20:44;;;;;;;0.27;0.27;;;;;;;11.23;85.77;94503.75;4314547;33;20264;-63
2023/10/30 04:23:10;;;;;;;0.50;0.47;;;;;;;11.26;85.72;94497.81;4304958;33;20225;-63
2023/10/30 04:25:38;;;;;;;0.40;0.40;;;;;;;11.25;86.14;94498.13;4296084;33;20294;-63
2023/10/30 04:28:05;;;;;;;0.50;0.50;;;;;;;11.35;85.78;94487.16;4297489;33;20185;-63
2023/10/30 04:30:31;;;;;;;0.43;0.43;;;;;;;11.35;86.06;94482.63;4319970;33;20185;-62
2023/10/30 04:32:58;;;;;;;0.30;0.30;;;;;;;11.32;86.21;94472.66;4283434;33;20242;-63
2023/10/30 04:35:25;;;;;;;0.27;0.27;;;;;;;11.30;86.40;94474.06;4301720;33;20189;-63
2023/10/30 04:37:51;;;;;;;0.40;0.40;;;;;;;11.33;86.41;94468.13;4286575;33;20277;-63
2023/10/30 04:40:17;;;;;;;0.73;0.53;;;;;;;11.36;86.41;94472.81;4294189;33;20210;-64
2023/10/30 04:42:44;;;;;;;0.63;0.63;;;;;;;11.37;86.46;94466.38;4274760;33;20208;-63
2023/10/30 04:45:11;;;;;;;0.63;0.63;;;;;;;11.45;86.27;94459.47;4291569;33;20197;-63
2023/10/30 04:47:36;;;;;;;0.77;0.77;;;;;;;11.49;86.46;94465.69;4287934;33;20187;-63
2023/10/30 04:50:02;;;;;;;0.20;0.13;;;;;;;11.60;85.79;94469.56;4281335;33;20203;-63
2023/10/30 04:52:29;;;;;;;0.80;0.80;;;;;;;11.49;86.64;94466.47;4297340;33;20182;-63
2023/10/30 04:54:55;;;;;;;0.40;0.40;;;;;;;11.39;87.52;94466.06;4313885;33;20201;-63
2023/10/30 04:57:21;;;;;;;0.50;0.50;;;;;;;11.55;86.32;94454.59;4289566;33;20192;-63
2023/10/30 04:59:48;;;;;;;0.13;0.13;;;;;;;11.70;85.47;94462.00;4301222;33;20268;-63
2023/10/30 05:02:16;;;;;;;0.70;0.70;;;;;;;11.56;84.86;94450.84;4312430;33;20212;-63
2023/10/30 05:04:43;;;;;;;1.27;1.17;;;;;;;11.70;84.61;94451.38;4266925;33;20208;-63
2023/10/30 05:07:09;;;;;;;1.33;1.03;;;;;;;11.75;84.50;94452.28;4277382;33;20310;-63
2023/10/30 05:09:37;;;;;;;0.40;0.40;;;;;;;11.76;83.59;94445.88;4270920;33;20226;-63
2023/10/30 05:12:04;;;;;;;0.60;0.60;;;;;;;11.68;83.87;94442.94;4265618;33;20258;-63
2023/10/30 05:14:32;;;;;;;1.30;0.60;;;;;;;11.66;83.67;94444.34;4281321;33;20198;-63
2023/10/30 05:16:57;;;;;;;0.40;0.40;;;;;;;11.60;83.91;94443.78;4282099;33;20197;-63
2023/10/30 05:19:24;;;;;;;0.97;0.97;;;;;;;11.62;83.96;94438.94;4278101;33;20182;-63
2023/10/30 05:21:50;;;;;;;0.70;0.70;;;;;;;11.56;84.03;94445.53;4279176;33;20253;-63
2023/10/30 05:24:16;;;;;;;0.63;0.63;;;;;;;11.65;83.75;94435.63;4301439;33;20187;-63
2023/10/30 05:26:42;;;;;;;1.67;0.80;;;;;;;11.40;84.70;94441.06;4301852;33;20233;-63
2023/10/30 05:29:07;;;;;;;0.67;0.67;;;;;;;11.31;85.65;94438.44;4293054;33;20197;-63
2023/10/30 05:31:33;;;;;;;0.40;0.40;;;;;;;11.40;85.60;94431.25;4282378;33;20237;-63
2023/10/30 05:34:21;;;;;;;0.30;0.30;;;;;;;11.31;86.33;94441.09;4303023;33;20182;-63
2023/10/30 05:36:48;;;;;;;2.77;1.30;;;;;;;11.05;88.08;94445.72;4280969;33;20222;-63
2023/10/30 05:39:13;;;;;;;0.37;0.37;;;;;;;11.00;88.55;94450.13;4285239;33;20182;-63
2023/10/30 05:41:40;;;;;;;1.03;1.03;;;;;;;11.16;88.41;94452.25;4313052;33;20216;-63
2023/10/30 05:44:06;;;;;;;1.00;1.00;;;;;;;11.21;88.17;94441.47;4273008;33;20182;-63
2023/10/30 05:46:34;;;;;;;1.10;1.00;;;;;;;11.20;88.29;94437.25;4300158;33;20194;-63
2023/10/30 05:49:00;;;;;;;1.17;1.10;;;;;;;11.31;87.78;94427.84;4288518;33;20266;-63
2023/10/30 05:51:26;;;;;;;1.43;1.17;;;;;;;11.21;88.26;94426.31;4292663;33;20198;-63
2023/10/30 05:53:53;;;;;;;1.27;1.27;;;;;;;11.11;88.92;94423.22;4283512;33;21188;-63
2023/10/30 05:56:19;;;;;;;0.63;0.63;;;;;;;11.31;88.15;94430.47;4264378;33;20191;-63
2023/10/30 05:58:48;;;;;;;0.87;0.87;;;;;;;11.26;88.20;94441.28;4297774;33;20194;-63
2023/10/30 06:01:17;;;;;;;1.20;1.20;;;;;;;11.19;88.75;94433.81;4300845;33;20193;-63
2023/10/30 06:03:42;;;;;;;1.27;1.00;;;;;;;11.22;88.94;94445.69;4311802;33;20251;-64
2023/10/30 06:06:09;;;;;;;0.50;0.50;;;;;;;11.22;88.74;94456.31;4308613;33;20178;-63
2023/10/30 06:08:36;;;;;;;0.87;0.87;;;;;;;11.30;88.25;94453.59;4283087;33;20208;-63
2023/10/30 06:11:03;;;;;;;0.60;0.60;;;;;;;11.25;87.64;94448.47;4303730;33;20213;-63
2023/10/30 06:13:30;;;;;;;0.80;0.80;;;;;;;11.29;87.62;94443.28;4308479;33;20182;-63
2023/10/30 06:15:57;;;;;;;0.50;0.50;;;;;;;11.28;87.38;94444.41;4310242;33;20193;-63
2023/10/30 06:18:23;;;;;;;1.23;1.10;;;;;;;11.18;88.04;94463.34;4325683;32;20281;-63
2023/10/30 06:20:49;;;;;;;0.63;0.63;;;;;;;11.23;87.26;94455.97;4295204;33;20186;-63
2023/10/30 06:23:17;;;;;;;0.63;0.63;;;;;;;11.18;87.30;94450.06;4285284;33;20205;-63
2023/10/30 06:25:46;;;;;;;2.07;1.03;;;;;;;11.09;88.01;94471.31;4298506;33;20198;-63
2023/10/30 06:28:15;;;;;;;1.10;1.10;;;;;;;11.05;88.12;94456.34;4313137;33;20275;-63
2023/10/30 06:30:41;;;;;;;1.00;1.00;;;;;;;11.06;88.35;94464.00;4276300;33;20212;-63
2023/10/30 06:33:10;;;;;;;1.47;1.37;;;;;;;11.05;88.28;94464.31;4290556;33;20258;-63
2023/10/30 06:35:36;;;;;;;1.23;1.13;;;;;;;11.00;88.36;94467.94;4320219;33;20177;-64
2023/10/30 06:38:03;;;;;;;1.97;1.10;;;;;;;11.11;87.90;94468.34;4290042;33;20200;-63
2023/10/30 06:40:31;;;;;;;1.40;1.27;;;;;;;11.06;88.17;94457.91;4297659;33;20229;-63
2023/10/30 06:42:59;;;;;;;1.20;1.17;;;;;;;11.06;88.24;94468.50;4295003;33;20187;-63
2023/10/30 06:45:24;;;;;;;1.43;1.33;;;;;;;11.07;88.17;94464.78;4300442;33;20296;-63
2023/10/30 06:47:51;;;;;;;4.00;1.37;;;;;;;11.03;88.31;94465.41;4305219;33;20186;-63
2023/10/30 06:50:17;;;;;;;2.30;1.10;;;;;;;11.01;88.36;94466.84;4308706;33;20178;-63
2023/10/30 06:52:44;;;;;;;0.93;0.93;;;;;;;10.85;88.48;94461.22;4324030;33;20182;-63
2023/10/30 06:55:11;;;;;;;0.80;0.80;;;;;;;10.97;88.49;94461.38;4313359;33;20181;-63
2023/10/30 06:57:37;;;;;;;0.37;0.33;;;;;;;11.00;88.58;94458.09;4311627;33;20190;-66
2023/10/30 07:00:10;;;;;;;0.83;0.83;;;;;;;11.00;88.49;94459.97;4283213;33;20312;-63
2023/10/30 07:02:35;;;;;;;0.97;0.97;;;;;;;10.98;88.71;94462.94;4291722;33;20190;-63
2023/10/30 07:05:02;;;;;;;1.37;1.27;;;;;;;11.15;88.20;94466.63;4292146;33;20229;-63
2023/10/30 07:07:29;;;;;;;2.70;1.13;;;;;;;11.10;88.59;94470.22;4313696;33;20191;-63
2023/10/30 07:09:54;;;;;;;0.37;0.37;;;;;;;11.15;88.71;94474.59;4313664;33;20196;-63
2023/10/30 07:12:20;;;;;;;0.73;0.73;;;;;;;11.26;88.22;94467.81;4309892;33;20280;-63
2023/10/30 07:14:47;;;;;;;0.77;0.77;;;;;;;11.18;88.83;94466.00;4301038;33;20249;-63
2023/10/30 07:17:12;;;;;;;0.70;0.70;;;;;;;11.32;88.24;94467.34;4299038;32;20239;-63
2023/10/30 07:19:39;;;;;;;0.50;0.50;;;;;;;11.25;88.76;94471.56;4303191;33;20186;-63
2023/10/30 07:22:05;;;;;;;0.40;0.40;;;;;;;11.40;88.35;94484.34;4254802;33;20280;-63
2023/10/30 07:24:33;;;;;;;0.70;0.70;;;;;;;11.40;88.30;94480.91;4291935;33;20182;-63
2023/10/30 07:27:00;;;;;;;1.40;1.40;;;;;;;11.52;87.81;94479.12;4325572;33;20182;-64
2023/10/30 07:29:25;;;;;;;0.60;0.60;;;;;;;11.41;87.94;94472.63;4306442;33;20292;-64
2023/10/30 07:31:55;;;;;;;0.57;0.57;;;;;;;11.45;88.33;94462.91;4300152;33;20178;-64
2023/10/30 07:34:22;;;;;;;0.70;0.70;;;;;;;11.49;88.39;94460.37;4313057;33;20189;-65
2023/10/30 07:36:49;;;;;;;1.03;1.03;;;;;;;11.63;88.26;94455.66;4314329;33;20193;-64
2023/10/30 07:39:16;;;;;;;0.93;0.93;;;;;;;11.64;88.47;94462.50;4315423;33;20196;-65
2023/10/30 07:41:43;;;;;;;0.90;0.90;;;;;;;11.68;88.49;94453.56;4302379;33;20178;-64
2023/10/30 07:44:09;;;;;;;0.70;0.70;;;;;;;11.67;88.83;94451.22;4304589;33;20208;-64
2023/10/30 07:46:35;;;;;;;3.07;2.87;;;;;;;11.71;88.72;94431.69;4312855;33;20190;-65
2023/10/30 07:49:06;;;;;;;1.90;1.80;;;;;;;11.81;88.70;94424.47;4281976;33;20217;-65
2023/10/30 07:51:33;;;;;;;1.03;1.03;;;;;;;11.85;88.64;94436.78;4295425;33;20264;-64
2023/10/30 07:54:00;;;;;;;3.17;1.53;;;;;;;11.83;88.36;94428.38;4313649;33;20181;-64
2023/10/30 07:56:26;;;;;;;1.53;1.53;;;;;;;11.94;88.25;94423.44;4313486;33;20178;-65
2023/10/30 07:58:52;;;;;;;1.83;1.40;;;;;;;11.89;88.58;94419.09;4306279;33;20402;-64
2023/10/30 08:01:20;;;;;;;4.03;1.27;;;;;;;11.96;88.01;94426.56;4286475;33;20244;-65
2023/10/30 08:03:46;;;;;;;1.40;1.30;;;;;;;11.92;88.18;94426.41;4314153;33;20181;-65
2023/10/30 08:06:12;;;;;;;1.03;1.03;;;;;;;12.03;87.63;94418.84;4302646;33;20205;-64
2023/10/30 08:08:38;;;;;;;0.70;0.70;;;;;;;11.89;88.32;94405.78;4262596;33;20206;-65
2023/10/30 08:11:09;;;;;;;1.03;1.03;;;;;;;11.95;88.11;94414.37;4306405;33;20224;-65
2023/10/30 08:13:39;;;;;;;0.50;0.50;;;;;;;11.90;88.50;94409.22;4313292;33;20256;-64
2023/10/30 08:16:06;;;;;;;0.80;0.80;;;;;;;11.92;88.42;94417.66;4283588;33;20192;-64
2023/10/30 08:18:34;;;;;;;1.13;1.13;;;;;;;11.87;88.63;94407.22;4288723;33;20297;-64
2023/10/30 08:20:59;;;;;;;0.97;0.97;;;;;;;11.89;88.83;94395.16;4314027;33;20190;-65
2023/10/30 08:23:24;;;;;;;1.03;1.03;;;;;;;12.00;88.67;94400.88;4305821;33;20189;-65
2023/10/30 08:25:51;;;;;;;1.07;1.07;;;;;;;12.10;88.60;94410.34;4307003;33;20196;-65
2023/10/30 08:28:17;;;;;;;1.00;1.00;;;;;;;12.15;88.71;94397.63;4321188;33;20174;-65
2023/10/30 08:30:42;;;;;;;0.90;0.90;;;;;;;12.23;87.97;94394.13;4323229;33;20232;-65
2023/10/30 08:33:08;;;;;;;2.20;1.33;;;;;;;12.28;87.50;94396.56;4336078;33;20192;-64
2023/10/30 08:35:34;;;;;;;1.17;1.17;;;;;;;12.28;87.23;94403.78;4336303;33;20183;-64
2023/10/30 08:38:04;;;;;;;2.13;1.13;;;;;;;12.34;87.39;94391.84;4327031;33;20192;-65
2023/10/30 08:40:31;;;;;;;1.07;1.07;;;;;;;12.39;87.13;94392.41;4325201;33;20181;-65
2023/10/30 08:42:57;;;;;;;1.23;1.17;;;;;;;12.55;86.57;94389.91;4317252;33;20173;-65
2023/10/30 08:45:25;;;;;;;0.87;0.87;;;;;;;12.59;86.40;94387.38;4326543;33;20178;-65
2023/10/30 08:47:52;;;;;;;3.33;3.13;;;;;;;12.65;86.26;94386.84;4325018;33;20174;-65
2023/10/30 08:50:19;;;;;;;0.67;0.67;;;;;;;12.68;86.05;94388.06;4324363;33;20209;-65
2023/10/30 08:52:49;;;;;;;0.97;0.97;;;;;;;12.76;85.36;94392.50;4326723;33;20190;-65
2023/10/30 08:55:14;;;;;;;0.73;0.73;;;;;;;12.76;85.61;94403.16;4314838;33;20193;-65
2023/10/30 08:57:41;;;;;;;1.27;1.27;;;;;;;12.82;85.05;94393.88;4336890;33;20193;-65
2023/10/30 09:00:07;;;;;;;1.10;1.07;;;;;;;12.87;84.99;94385.69;4339267;33;20192;-65
2023/10/30 09:02:36;;;;;;;1.47;1.37;;;;;;;12.95;84.54;94392.78;4308613;33;20253;-64
2023/10/30 09:05:03;;;;;;;0.60;0.60;;;;;;;12.95;84.65;94392.78;4327682;33;20193;-63
2023/10/30 09:07:31;;;;;;;1.03;1.03;;;;;;;13.07;84.22;94384.03;4307044;33;20196;-65
2023/10/30 09:09:58;;;;;;;1.00;1.00;;;;;;;12.98;84.33;94381.47;4328371;33;20166;-65
2023/10/30 09:12:24;;;;;;;0.40;0.40;;;;;;;13.01;84.09;94374.72;4327802;33;20239;-65
2023/10/30 09:14:52;;;;;;;1.27;1.10;;;;;;;13.08;83.73;94367.72;4297364;33;20234;-65
2023/10/30 09:17:19;;;;;;;1.70;0.80;;;;;;;13.12;83.54;94365.16;4324520;33;20185;-65
2023/10/30 09:19:44;;;;;;;0.80;0.80;;;;;;;13.18;83.22;94373.75;4327490;33;20174;-66
2023/10/30 09:22:10;;;;;;;0.60;0.60;;;;;;;13.28;81.47;94360.00;4316175;33;20200;-65
2023/10/30 09:24:38;;;;;;;0.87;0.87;;;;;;;13.34;80.50;94353.31;4310066;33;20277;-65
2023/10/30 09:27:04;;;;;;;0.40;0.40;;;;;;;13.35;79.99;94358.31;4338521;33;20231;-65
2023/10/30 09:29:29;;;;;;;0.20;0.20;;;;;;;13.41;79.46;94351.66;4339691;33;20223;-65
2023/10/30 09:31:59;;;;;;;0.50;0.50;;;;;;;13.51;78.70;94342.41;4313734;33;20189;-65
2023/10/30 09:34:25;;;;;;;0.83;0.50;;;;;;;13.57;78.55;94349.06;4314143;33;20179;-65
2023/10/30 09:36:50;;;;;;;0.50;0.50;;;;;;;13.57;79.12;94349.06;4331460;33;20180;-65
2023/10/30 09:39:17;;;;;;;0.63;0.47;;;;;;;13.61;78.23;94339.31;4327244;33;20244;-65
2023/10/30 09:41:45;;;;;;;0.23;0.23;;;;;;;13.74;76.41;94337.37;4338568;33;20237;-65
2023/10/30 09:44:11;;;;;;;0.50;0.50;;;;;;;13.79;75.97;94339.81;4287650;33;20222;-65
2023/10/30 09:46:39;;;;;;;0.47;0.47;;;;;;;13.84;75.19;94347.59;4319198;33;20186;-65
2023/10/30 09:49:06;;;;;;;0.60;0.60;;;;;;;13.87;75.40;94346.13;4320207;33;20178;-65
2023/10/30 09:51:35;;;;;;;0.27;0.27;;;;;;;13.88;75.90;94337.81;4308290;33;20182;-65
2023/10/30 09:54:02;;;;;;;0.40;0.40;;;;;;;13.92;75.59;94332.56;4289664;33;20237;-65
2023/10/30 09:56:31;;;;;;;0.20;0.20;;;;;;;13.93;75.61;94318.09;4326146;33;20178;-65
2023/10/30 09:58:57;;;;;;;0.90;0.90;;;;;;;14.02;75.25;94322.19;4326284;33;20189;-65
2023/10/30 10:01:24;;;;;;;0.50;0.50;;;;;;;14.10;74.85;94315.16;4326620;33;20293;-65
2023/10/30 10:03:49;;;;;;;1.33;1.00;;;;;;;14.22;74.02;94319.66;4326903;33;20233;-65
2023/10/30 10:06:17;;;;;;;0.33;0.33;;;;;;;14.26;74.03;94313.31;4317436;33;20233;-65
2023/10/30 10:08:43;;;;;;;0.73;0.60;;;;;;;14.34;73.69;94306.28;4314551;33;20280;-65
2023/10/30 10:11:09;;;;;;;0.30;0.30;;;;;;;14.38;73.76;94296.47;4326847;33;20192;-65
2023/10/30 10:13:40;;;;;;;0.17;0.17;;;;;;;14.41;73.81;94288.56;4337160;33;20170;-65
2023/10/30 10:16:06;;;;;;;1.33;0.77;;;;;;;14.52;72.90;94277.41;4325834;33;20186;-65
2023/10/30 10:18:35;;;;;;;1.27;0.77;;;;;;;14.48;73.16;94273.88;4275462;33;20193;-65
2023/10/30 10:21:03;;;;;;;0.17;0.17;;;;;;;14.55;73.33;94263.38;4322235;33;20179;-65
2023/10/30 10:23:37;;;;;;;0.60;0.60;;;;;;;14.58;73.53;94252.78;4318213;33;20188;-65
2023/10/30 10:26:16;;;;;;;0.50;0.50;;;;;;;14.67;73.15;94250.72;4312181;33;20158;-63
2023/10/30 10:28:47;;;;;;;0.20;0.20;;;;;;;14.73;72.68;94243.22;4309223;33;20185;-65
2023/10/30 10:31:14;;;;;;;0.60;0.60;;;;;;;14.81;72.08;94242.25;4323413;33;20229;-65
2023/10/30 10:33:40;;;;;;;0.47;0.30;;;;;;;14.81;72.61;94244.16;4277185;33;20174;-65
2023/10/30 10:36:10;;;;;;;0.30;0.30;;;;;;;14.76;72.99;94247.84;4302472;33;20183;-65
2023/10/30 10:38:37;;;;;;;0.20;0.20;;;;;;;14.86;72.47;94246.56;4328821;33;20174;-65
2023/10/30 10:41:07;;;;;;;0.27;0.27;;;;;;;14.88;73.20;94245.09;4308934;33;20218;-64
2023/10/30 10:43:34;;;;;;;0.23;0.23;;;;;;;14.83;73.86;94242.69;4296512;33;20241;-65
2023/10/30 10:46:01;;;;;;;0.67;0.67;;;;;;;14.84;73.76;94233.56;4303759;33;20174;-65
2023/10/30 10:48:28;;;;;;;0.50;0.50;;;;;;;14.83;73.50;94221.31;4314778;33;20265;-65
2023/10/30 10:50:56;;;;;;;0.87;0.87;;;;;;;15.03;72.15;94209.56;4297296;33;20205;-65
2023/10/30 10:53:27;;;;;;;0.40;0.40;;;;;;;15.10;71.62;94215.09;4282452;33;20178;-65
2023/10/30 10:56:05;;;;;;;0.70;0.60;;;;;;;15.13;71.54;94225.06;4282951;33;20223;-65
2023/10/30 10:58:44;;;;;;;0.37;0.37;;;;;;;15.21;70.92;94225.22;4288791;33;20190;-65
2023/10/30 11:01:17;;;;;;;1.70;0.73;;;;;;;15.21;71.09;94220.62;4307466;33;20265;-65
2023/10/30 11:03:46;;;;;;;0.60;0.53;;;;;;;15.28;70.57;94214.69;4301654;33;20248;-65
2023/10/30 11:06:27;;;;;;;0.30;0.30;;;;;;;15.26;70.98;94211.59;4295813;33;20265;-65
2023/10/30 11:09:05;;;;;;;1.80;0.60;;;;;;;15.34;70.55;94214.06;4276663;33;20272;-65
2023/10/30 11:11:48;;;;;;;0.57;0.43;;;;;;;15.36;71.14;94208.37;4285032;33;20254;-65
2023/10/30 11:15:12;;;;;;;0.50;0.50;;;;;;;15.34;70.98;94202.59;4299460;33;20198;-65
2023/10/30 11:17:38;;;;;;;0.47;0.47;;;;;;;15.29;72.52;94192.19;4267525;33;20208;-65
2023/10/30 11:20:09;;;;;;;2.00;0.97;;;;;;;15.27;72.14;94181.06;4294342;33;20186;-65
2023/10/30 11:22:42;;;;;;;0.20;0.20;;;;;;;15.32;71.24;94162.87;4302281;33;20178;-65
2023/10/30 11:25:50;;;;;;;0.30;0.30;;;;;;;15.39;71.22;94162.22;4289495;33;20201;-65
2023/10/30 11:28:17;;;;;;;1.40;0.73;;;;;;;15.43;71.21;94152.38;4280438;33;20233;-66
2023/10/30 11:30:48;;;;;;;4.30;0.63;;;;;;;15.33;71.88;94155.63;4296343;33;20239;-65
2023/10/30 11:33:27;;;;;;;0.30;0.30;;;;;;;15.34;71.44;94147.25;4306954;33;20252;-65
2023/10/30 11:36:20;;;;;;;0.77;0.70;;;;;;;15.26;72.49;94139.44;4264936;33;20182;-65